Home   Weather   France   Cannes   Past weeks
Flag for France

Past Weather in Cannes, Provence-Alpes-Côte-d’Azur, France — Yesterday and Last 2 Weeks

Currently: 73 °F. Clear. (Weather station: Cannes Airport, France). See more current weather

Past Weather in Cannes — Graph

°F

Cannes Temperature Yesterday

Maximum temperature yesterday: 77 °F (at 2:00 pm)
Minimum temperature yesterday: 64 °F (at 11:00 pm)
Average temperature yesterday: 70 °F

High & Low Weather Summary for the Past Weeks

 TemperatureHumidityPressure
High86 °F (Sep 4, 3:00 pm)100% (Sep 16, 6:00 am)30.18 "Hg (Sep 16, 6:00 am)
Low61 °F (Sep 11, 6:00 am)37% (Sep 4, 6:00 pm)29.80 "Hg (Sep 17, 4:30 pm)
Average73 °F68%30.02 "Hg
* Reported Sep 2 7:00 pm — Sep 17 7:30 pm, Cannes. Weather by CustomWeather, © 2021

Note: Actual official high and low records may vary slightly from our data, if they occured in-between our weather recording intervals... More about our weather records

Cannes Weather History for the Previous 24 Hours

Scroll right to see more
 ConditionsComfort  
Time TempWeatherWind HumidityBarometerVisibility
7:30 pm
Fri, Sep 17
75 °FSunny.2 mph74%29.80 "Hg10 mi
7:00 pm77 °FPassing clouds.3 mph69%29.80 "HgN/A
6:30 pm81 °FPassing clouds.5 mph66%29.80 "HgN/A
6:00 pm81 °FPassing clouds.3 mph66%29.80 "HgN/A
5:30 pm81 °FPassing clouds.5 mph66%29.80 "HgN/A
5:00 pm81 °FPassing clouds.5 mph66%29.80 "HgN/A
4:30 pm79 °FPassing clouds.6 mph70%29.80 "HgN/A
4:00 pm79 °FPassing clouds.7 mph70%29.83 "HgN/A
3:30 pm79 °FPassing clouds.8 mph65%29.83 "HgN/A
3:00 pm79 °FPassing clouds.8 mph58%29.83 "HgN/A
2:30 pm81 °FPassing clouds.7 mph58%29.83 "HgN/A
2:00 pm79 °FSunny.7 mph61%29.86 "Hg10 mi
1:30 pm81 °FPassing clouds.6 mph58%29.86 "HgN/A
1:00 pm79 °FPassing clouds.7 mph61%29.86 "HgN/A
12:30 pm79 °FPassing clouds.7 mph58%29.86 "HgN/A
12:00 pm77 °FSunny.9 mph65%29.86 "Hg10 mi
11:30 am77 °FSunny.No wind65%29.86 "Hg10 mi
11:00 am75 °FSunny.3 mph65%29.86 "Hg10 mi
10:30 am72 °FSunny.3 mph83%29.86 "Hg10 mi
10:00 am70 °FPassing clouds.5 mph83%29.86 "HgN/A
9:30 am66 °FPassing clouds.5 mph88%29.86 "HgN/A
9:00 am64 °FPassing clouds.3 mph94%29.86 "HgN/A
8:30 am63 °FSunny.3 mph100%29.86 "Hg10 mi
8:00 am63 °FSunny.2 mph94%29.86 "Hg10 mi
7:30 am61 °FSunny.3 mph100%29.86 "Hg10 mi
7:00 am61 °FPassing clouds.6 mph100%29.83 "HgN/A
6:30 am61 °FPassing clouds.3 mph100%29.83 "HgN/A
6:00 am61 °FPassing clouds.3 mph100%29.83 "HgN/A
5:30 am61 °FPassing clouds.3 mph100%29.86 "HgN/A
5:00 am63 °FClear.3 mph94%29.86 "Hg10 mi
4:30 am63 °FPassing clouds.5 mph94%29.86 "HgN/A
4:00 am63 °FClear.3 mph100%29.86 "Hg10 mi
3:30 am63 °FPassing clouds.3 mph100%29.89 "HgN/A
3:00 am63 °FClear.2 mph100%29.89 "Hg10 mi
2:30 am63 °FPassing clouds.3 mph100%29.89 "HgN/A
2:00 am63 °FPassing clouds.3 mph100%29.92 "HgN/A
1:30 am64 °FClear.3 mph94%29.92 "Hg10 mi
1:00 am64 °FClear.2 mph94%29.92 "Hg10 mi
12:30 am64 °FPassing clouds.3 mph94%29.92 "HgN/A
12:00 am64 °FClear.2 mph100%29.92 "Hg10 mi
11:00 pm
Thu, Sep 16
64 °FClear.1 mph100%29.92 "Hg10 mi
10:30 pm66 °FClear.2 mph94%29.92 "Hg10 mi
10:00 pm66 °FClear.No wind94%29.92 "Hg10 mi
9:30 pm66 °FPassing clouds.2 mph94%29.92 "HgN/A
9:00 pm66 °FPassing clouds.1 mph94%29.92 "HgN/A
8:30 pm66 °FPassing clouds.2 mph100%29.92 "HgN/A
8:00 pm66 °FMostly cloudy.No wind100%29.92 "HgN/A
Weather by CustomWeather, © 2021

See weather overview